createdAt,value
2023-02-26T00:02:01.038Z,0.80
2023-02-26T00:04:29.557Z,0.80
2023-02-26T00:06:59.738Z,0.90
2023-02-26T00:09:28.655Z,0.80
2023-02-26T00:11:59.431Z,0.80
2023-02-26T00:14:29.022Z,0.80
2023-02-26T00:17:26.143Z,0.80
2023-02-26T00:19:55.397Z,0.70
2023-02-26T00:22:24.397Z,0.80
2023-02-26T00:24:52.487Z,0.80
2023-02-26T00:27:22.174Z,0.80
2023-02-26T00:29:51.497Z,0.80
2023-02-26T00:32:20.506Z,0.80
2023-02-26T00:34:50.033Z,0.80
2023-02-26T00:37:35.621Z,0.80
2023-02-26T00:40:21.680Z,0.70
2023-02-26T00:42:52.166Z,0.70
2023-02-26T00:45:21.744Z,0.60
2023-02-26T00:47:56.783Z,0.50
2023-02-26T00:50:27.933Z,0.50
2023-02-26T00:53:10.135Z,0.40
2023-02-26T00:55:39.415Z,0.40
2023-02-26T00:58:09.053Z,0.30
2023-02-26T01:00:37.204Z,0.30
2023-02-26T01:03:06.235Z,0.20
2023-02-26T01:05:35.466Z,0.20
2023-02-26T01:08:13.658Z,0.10
2023-02-26T01:10:44.234Z,0.10
2023-02-26T01:13:14.738Z,0.00
2023-02-26T01:15:51.245Z,0.00
2023-02-26T01:18:27.131Z,-0.10
2023-02-26T01:21:01.590Z,-0.10
2023-02-26T01:23:35.215Z,-0.10
2023-02-26T01:26:09.197Z,-0.20
2023-02-26T01:28:39.711Z,-0.20
2023-02-26T01:31:24.406Z,-0.20
2023-02-26T01:34:01.603Z,-0.30
2023-02-26T01:36:37.614Z,-0.30
2023-02-26T01:39:13.637Z,-0.30
2023-02-26T01:41:48.820Z,-0.40
2023-02-26T01:44:27.157Z,-0.40
2023-02-26T01:47:16.283Z,-0.40
2023-02-26T01:49:45.847Z,-0.50
2023-02-26T01:53:05.459Z,-0.50
2023-02-26T01:55:33.749Z,-0.60
2023-02-26T01:58:04.301Z,-0.70
2023-02-26T02:00:33.877Z,-0.70
2023-02-26T02:03:02.598Z,-0.70
2023-02-26T02:05:36.085Z,-0.80
2023-02-26T02:08:04.492Z,-0.80
2023-02-26T02:10:33.640Z,-0.80
2023-02-26T02:13:16.880Z,-0.80
2023-02-26T02:15:58.155Z,-0.90
2023-02-26T02:18:42.452Z,-0.90
2023-02-26T02:21:47.409Z,-1.00
2023-02-26T02:24:30.368Z,-1.00
2023-02-26T02:27:07.954Z,-1.00
2023-02-26T02:30:12.111Z,-1.10
2023-02-26T02:32:49.987Z,-1.10
2023-02-26T02:35:26.340Z,-1.20
2023-02-26T02:38:05.770Z,-1.20
2023-02-26T02:40:38.362Z,-1.20
2023-02-26T02:43:14.274Z,-1.20
2023-02-26T02:45:49.434Z,-1.30
2023-02-26T02:48:27.288Z,-1.30
2023-02-26T02:51:01.128Z,-1.30
2023-02-26T02:53:37.529Z,-1.40
2023-02-26T02:56:12.055Z,-1.40
2023-02-26T02:58:45.717Z,-1.40
2023-02-26T03:01:20.643Z,-1.40
2023-02-26T03:03:59.431Z,-1.50
2023-02-26T03:06:27.722Z,-1.50
2023-02-26T03:08:56.678Z,-1.50
2023-02-26T03:11:24.862Z,-1.50
2023-02-26T03:13:55.580Z,-1.40
2023-02-26T03:16:54.141Z,-1.40
2023-02-26T03:19:34.195Z,-1.40
2023-02-26T03:22:10.091Z,-1.40
2023-02-26T03:25:06.826Z,-1.40
2023-02-26T03:27:47.001Z,-1.40
2023-02-26T03:30:21.636Z,-1.40
2023-02-26T03:33:00.186Z,-1.40
2023-02-26T03:35:39.643Z,-1.40
2023-02-26T03:38:14.316Z,-1.40
2023-02-26T03:40:47.961Z,-1.40
2023-02-26T03:43:24.074Z,-1.40
2023-02-26T03:46:01.008Z,-1.40
2023-02-26T03:48:32.516Z,-1.40
2023-02-26T03:51:09.056Z,-1.50
2023-02-26T03:53:59.674Z,-1.50
2023-02-26T03:56:37.389Z,-1.60
2023-02-26T03:59:43.826Z,-1.60
2023-02-26T04:02:43.964Z,-1.70
2023-02-26T04:05:21.592Z,-1.70
2023-02-26T04:07:51.871Z,-1.70
2023-02-26T04:10:26.453Z,-1.70
2023-02-26T04:12:54.726Z,-1.70
2023-02-26T04:15:23.102Z,-1.70
2023-02-26T04:17:51.283Z,-1.70
2023-02-26T04:20:19.955Z,-1.60
2023-02-26T04:22:48.153Z,-1.50
2023-02-26T04:25:17.688Z,-1.40
2023-02-26T04:27:46.037Z,-1.30
2023-02-26T04:30:14.923Z,-1.20
2023-02-26T04:32:43.121Z,-1.10
2023-02-26T04:35:13.001Z,-1.10
2023-02-26T04:37:41.337Z,-1.00
2023-02-26T04:40:11.207Z,-1.00
2023-02-26T04:42:40.960Z,-0.90
2023-02-26T04:45:09.915Z,-0.90
2023-02-26T04:47:40.011Z,-0.90
2023-02-26T04:50:10.614Z,-0.80
2023-02-26T04:52:38.895Z,-0.80
2023-02-26T04:55:08.867Z,-0.80
2023-02-26T04:57:40.975Z,-0.80
2023-02-26T05:00:13.157Z,-0.90
2023-02-26T05:02:42.097Z,-0.90
2023-02-26T05:05:10.883Z,-0.90
2023-02-26T05:07:39.234Z,-1.00
2023-02-26T05:10:09.284Z,-1.00
2023-02-26T05:12:37.560Z,-1.00
2023-02-26T05:15:08.898Z,-1.00
2023-02-26T05:17:37.499Z,-1.00
2023-02-26T05:20:10.035Z,-1.00
2023-02-26T05:22:38.712Z,-0.90
2023-02-26T05:25:09.105Z,-0.90
2023-02-26T05:27:37.363Z,-0.90
2023-02-26T05:30:09.244Z,-0.90
2023-02-26T05:32:38.553Z,-0.90
2023-02-26T05:35:07.908Z,-0.90
2023-02-26T05:37:36.100Z,-0.80
2023-02-26T05:40:05.725Z,-0.80
2023-02-26T05:42:33.851Z,-0.80
2023-02-26T05:45:02.127Z,-0.70
2023-02-26T05:47:31.614Z,-0.70
2023-02-26T05:49:59.823Z,-0.70
2023-02-26T05:52:28.353Z,-0.70
2023-02-26T05:54:57.034Z,-0.60
2023-02-26T05:57:25.976Z,-0.60
2023-02-26T05:59:54.269Z,-0.60
2023-02-26T06:02:22.447Z,-0.50
2023-02-26T06:04:52.062Z,-0.50
2023-02-26T06:07:20.251Z,-0.50
2023-02-26T06:09:48.424Z,-0.50
2023-02-26T06:12:16.649Z,-0.40
2023-02-26T06:14:44.904Z,-0.40
2023-02-26T06:17:13.252Z,-0.40
2023-02-26T06:19:41.552Z,-0.40
2023-02-26T06:22:11.070Z,-0.40
2023-02-26T06:24:39.250Z,-0.30
2023-02-26T06:27:08.103Z,-0.30
2023-02-26T06:29:39.697Z,-0.30
2023-02-26T06:32:08.323Z,-0.30
2023-02-26T06:34:36.602Z,-0.30
2023-02-26T06:37:04.833Z,-0.20
2023-02-26T06:39:35.312Z,-0.20
2023-02-26T06:42:03.513Z,-0.30
2023-02-26T06:44:31.702Z,-0.30
2023-02-26T06:46:59.983Z,-0.30
2023-02-26T06:49:28.116Z,-0.30
2023-02-26T06:51:56.714Z,-0.30
2023-02-26T06:54:24.888Z,-0.30
2023-02-26T06:56:57.683Z,-0.30
2023-02-26T06:59:26.190Z,-0.40
2023-02-26T07:01:54.542Z,-0.40
2023-02-26T07:04:22.765Z,-0.40
2023-02-26T07:06:50.918Z,-0.40
2023-02-26T07:09:20.239Z,-0.40
2023-02-26T07:11:48.512Z,-0.40
2023-02-26T07:14:18.024Z,-0.40
2023-02-26T07:16:46.264Z,-0.40
2023-02-26T07:19:14.697Z,-0.40
2023-02-26T07:21:42.819Z,-0.30
2023-02-26T07:24:11.032Z,-0.30
2023-02-26T07:26:39.179Z,-0.30
2023-02-26T07:29:07.776Z,-0.20
2023-02-26T07:31:37.412Z,-0.10
2023-02-26T07:34:05.701Z,-0.10
2023-02-26T07:36:34.489Z,0.00
2023-02-26T07:39:02.970Z,0.10
2023-02-26T07:41:31.181Z,0.20
2023-02-26T07:43:59.378Z,0.30
2023-02-26T07:46:28.050Z,0.30
2023-02-26T07:48:57.743Z,0.40
2023-02-26T07:51:26.174Z,0.50
2023-02-26T07:53:54.447Z,0.60
2023-02-26T07:56:22.654Z,0.70
2023-02-26T07:58:50.831Z,0.80
2023-02-26T08:01:19.076Z,0.90
2023-02-26T08:03:47.348Z,0.90
2023-02-26T08:06:16.810Z,1.00
2023-02-26T08:08:44.967Z,1.00
2023-02-26T08:11:13.150Z,1.00
2023-02-26T08:13:41.487Z,1.00
2023-02-26T08:16:10.123Z,1.10
2023-02-26T08:18:38.310Z,1.10
2023-02-26T08:21:07.158Z,1.10
2023-02-26T08:23:36.771Z,1.10
2023-02-26T08:26:08.318Z,1.00
2023-02-26T08:28:37.232Z,1.00
2023-02-26T08:31:06.570Z,1.00
2023-02-26T08:33:35.456Z,1.10
2023-02-26T08:36:03.755Z,1.20
2023-02-26T08:38:32.416Z,1.30
2023-02-26T08:41:02.207Z,1.40
2023-02-26T08:43:30.851Z,1.60
2023-02-26T08:46:00.549Z,1.70
2023-02-26T08:48:28.792Z,1.90
2023-02-26T08:50:56.941Z,2.00
2023-02-26T08:53:25.156Z,2.10
2023-02-26T08:55:54.626Z,2.20
2023-02-26T08:58:24.413Z,2.20
2023-02-26T09:00:52.674Z,2.20
2023-02-26T09:03:20.865Z,2.30
2023-02-26T09:05:49.073Z,2.30
2023-02-26T09:08:17.254Z,2.40
2023-02-26T09:10:45.378Z,2.60
2023-02-26T09:13:13.587Z,2.90
2023-02-26T09:15:43.464Z,3.10
2023-02-26T09:18:15.539Z,3.30
2023-02-26T09:20:44.154Z,3.50
2023-02-26T09:23:12.865Z,3.60
2023-02-26T09:25:41.326Z,3.70
2023-02-26T09:28:09.792Z,3.70
2023-02-26T09:30:38.027Z,3.80
2023-02-26T09:33:07.582Z,3.70
2023-02-26T09:35:35.797Z,3.70
2023-02-26T09:38:04.447Z,3.60
2023-02-26T09:40:46.930Z,3.70
2023-02-26T09:44:06.497Z,3.70
2023-02-26T09:46:46.807Z,3.80
2023-02-26T09:49:47.856Z,4.00
2023-02-26T09:52:25.446Z,4.20
2023-02-26T09:54:59.526Z,4.30
2023-02-26T09:57:33.627Z,4.50
2023-02-26T10:00:03.061Z,4.70
2023-02-26T10:02:54.317Z,4.80
2023-02-26T10:05:34.776Z,4.90
2023-02-26T10:08:09.330Z,4.90
2023-02-26T10:10:49.721Z,5.00
2023-02-26T10:13:49.040Z,5.00
2023-02-26T10:16:30.709Z,5.00
2023-02-26T10:19:07.253Z,4.90
2023-02-26T10:21:43.425Z,4.70
2023-02-26T10:24:19.214Z,4.50
2023-02-26T10:26:55.135Z,4.50
2023-02-26T10:29:33.395Z,4.40
2023-02-26T10:32:20.964Z,4.40
2023-02-26T10:34:56.979Z,4.30
2023-02-26T10:37:48.860Z,4.30
2023-02-26T10:40:24.600Z,4.50
2023-02-26T10:42:59.777Z,4.70
2023-02-26T10:45:45.376Z,4.90
2023-02-26T10:48:45.930Z,5.20
2023-02-26T10:51:18.148Z,5.20
2023-02-26T10:53:53.800Z,5.30
2023-02-26T10:56:26.581Z,5.40
2023-02-26T10:58:55.157Z,5.40
2023-02-26T11:01:26.713Z,5.50
2023-02-26T11:04:02.473Z,5.70
2023-02-26T11:06:35.863Z,5.80
2023-02-26T11:09:19.376Z,5.90
2023-02-26T11:11:50.010Z,6.10
2023-02-26T11:14:21.672Z,6.10
2023-02-26T11:16:55.635Z,6.20
2023-02-26T11:19:30.210Z,6.30
2023-02-26T11:22:01.016Z,6.40
2023-02-26T11:24:35.608Z,6.60
2023-02-26T11:33:02.633Z,6.30
2023-02-26T11:35:30.916Z,6.10
2023-02-26T11:38:04.153Z,5.80
2023-02-26T11:40:40.164Z,5.60
2023-02-26T11:43:15.957Z,5.70
2023-02-26T11:45:47.972Z,5.80
2023-02-26T11:48:24.649Z,6.10
2023-02-26T11:50:57.894Z,6.30
2023-02-26T11:53:35.045Z,6.70
2023-02-26T11:56:12.271Z,7.30
2023-02-26T11:58:46.678Z,7.70
2023-02-26T12:01:17.740Z,8.10
2023-02-26T12:03:51.036Z,8.00
2023-02-26T12:07:43.515Z,7.70
2023-02-26T12:10:19.862Z,7.20
2023-02-26T12:13:10.392Z,6.80
2023-02-26T12:15:50.472Z,6.80
2023-02-26T12:18:53.124Z,6.80
2023-02-26T12:21:53.852Z,7.00
2023-02-26T12:24:53.584Z,7.80
2023-02-26T12:27:35.629Z,8.00
2023-02-26T12:30:40.099Z,7.60
2023-02-26T12:33:27.264Z,7.30
2023-02-26T12:36:28.280Z,7.50
2023-02-26T12:39:15.917Z,8.70
2023-02-26T12:42:06.345Z,9.60
2023-02-26T12:45:09.883Z,10.60
2023-02-26T12:47:57.064Z,11.50
2023-02-26T12:50:58.274Z,11.00
2023-02-26T12:53:49.178Z,9.50
2023-02-26T12:56:53.964Z,8.30
2023-02-26T12:59:51.626Z,7.60
2023-02-26T13:03:05.852Z,7.20
2023-02-26T13:06:03.046Z,6.90
2023-02-26T13:08:44.169Z,7.00
2023-02-26T13:11:31.064Z,6.70
2023-02-26T13:14:25.582Z,6.30
2023-02-26T13:17:01.438Z,6.80
2023-02-26T13:19:43.382Z,7.30
2023-02-26T13:22:22.168Z,8.30
2023-02-26T13:24:59.946Z,8.20
2023-02-26T13:27:39.920Z,7.60
2023-02-26T13:30:23.137Z,6.90
2023-02-26T13:32:56.180Z,6.50
2023-02-26T13:35:32.662Z,6.30
2023-02-26T13:38:15.831Z,6.10
2023-02-26T13:40:59.242Z,6.10
2023-02-26T13:43:44.498Z,7.30
2023-02-26T13:46:37.515Z,8.90
2023-02-26T13:49:19.941Z,10.40
2023-02-26T13:51:53.626Z,10.80
2023-02-26T13:54:44.101Z,10.00
2023-02-26T13:57:34.093Z,8.80
2023-02-26T14:00:12.960Z,7.90
2023-02-26T14:02:55.323Z,7.60
2023-02-26T14:06:01.103Z,7.70
2023-02-26T14:08:54.686Z,8.20
2023-02-26T14:11:45.672Z,7.80
2023-02-26T14:14:41.451Z,7.30
2023-02-26T14:17:38.068Z,7.40
2023-02-26T14:20:26.212Z,8.10
2023-02-26T14:23:15.048Z,8.80
2023-02-26T14:25:50.307Z,9.00
2023-02-26T14:29:07.767Z,8.30
2023-02-26T14:32:10.277Z,7.50
2023-02-26T14:34:52.607Z,6.90
2023-02-26T14:37:25.386Z,6.40
2023-02-26T14:40:00.160Z,6.00
2023-02-26T14:42:37.745Z,5.70
2023-02-26T14:45:30.042Z,5.60
2023-02-26T14:48:01.707Z,5.60
2023-02-26T14:50:44.602Z,5.80
2023-02-26T14:54:06.462Z,6.30
2023-02-26T14:56:52.842Z,6.80
2023-02-26T14:59:52.584Z,6.90
2023-02-26T15:02:31.603Z,6.60
2023-02-26T15:05:27.295Z,6.30
2023-02-26T15:08:46.468Z,5.90
2023-02-26T15:11:46.427Z,5.50
2023-02-26T15:14:40.376Z,5.30
2023-02-26T15:17:25.476Z,5.20
2023-02-26T15:20:13.740Z,5.10
2023-02-26T15:23:05.460Z,4.90
2023-02-26T15:25:37.133Z,5.00
2023-02-26T15:28:11.832Z,4.80
2023-02-26T15:30:50.221Z,4.60
2023-02-26T15:33:21.965Z,4.30
2023-02-26T15:35:51.854Z,4.20
2023-02-26T15:38:20.413Z,4.20
2023-02-26T15:40:51.970Z,4.10
2023-02-26T15:43:28.072Z,4.10
2023-02-26T15:46:02.356Z,4.10
2023-02-26T15:48:37.451Z,4.00
2023-02-26T15:51:10.362Z,4.00
2023-02-26T15:53:43.229Z,4.00
2023-02-26T15:56:19.551Z,3.90
2023-02-26T15:58:53.164Z,3.90
2023-02-26T16:01:26.431Z,3.80
2023-02-26T16:03:59.404Z,3.70
2023-02-26T16:06:34.436Z,3.60
2023-02-26T16:09:03.797Z,3.50
2023-02-26T16:11:37.779Z,3.40
2023-02-26T16:14:11.238Z,3.40
2023-02-26T16:16:46.164Z,3.30
2023-02-26T16:19:16.977Z,3.30
2023-02-26T16:21:46.664Z,3.20
2023-02-26T16:24:21.404Z,3.10
2023-02-26T16:26:56.064Z,2.80
2023-02-26T16:29:28.876Z,2.70
2023-02-26T16:32:03.287Z,2.60
2023-02-26T16:34:41.349Z,2.50
2023-02-26T16:37:26.920Z,2.30
2023-02-26T16:40:17.023Z,2.20
2023-02-26T16:42:56.001Z,2.10
2023-02-26T16:45:49.289Z,2.00
2023-02-26T16:48:26.716Z,2.00
2023-02-26T16:51:01.793Z,1.90
2023-02-26T16:53:37.371Z,1.80
2023-02-26T16:56:07.185Z,1.70
2023-02-26T16:58:36.448Z,1.70
2023-02-26T17:01:14.057Z,1.60
2023-02-26T17:03:48.884Z,1.50
2023-02-26T17:06:20.324Z,1.50
2023-02-26T17:08:52.546Z,1.40
2023-02-26T17:11:28.138Z,1.30
2023-02-26T17:14:13.858Z,1.20
2023-02-26T17:16:42.202Z,1.20
2023-02-26T17:19:11.824Z,1.10
2023-02-26T17:21:45.462Z,1.00
2023-02-26T17:24:19.739Z,1.00
2023-02-26T17:26:49.318Z,1.00
2023-02-26T17:29:23.054Z,0.90
2023-02-26T17:31:51.687Z,0.90
2023-02-26T17:34:23.051Z,0.80
2023-02-26T17:36:51.736Z,0.80
2023-02-26T17:39:20.015Z,0.80
2023-02-26T17:41:49.040Z,0.70
2023-02-26T17:44:17.354Z,0.70
2023-02-26T17:46:45.701Z,0.70
2023-02-26T17:49:14.220Z,0.60
2023-02-26T17:51:43.769Z,0.60
2023-02-26T17:54:12.063Z,0.60
2023-02-26T17:56:42.135Z,0.50
2023-02-26T17:59:12.999Z,0.50
2023-02-26T18:01:41.330Z,0.50
2023-02-26T18:04:09.933Z,0.50
2023-02-26T18:06:39.013Z,0.40
2023-02-26T18:09:08.634Z,0.40
2023-02-26T18:11:36.948Z,0.40
2023-02-26T18:14:06.044Z,0.30
2023-02-26T18:16:39.212Z,0.30
2023-02-26T18:19:08.969Z,0.30
2023-02-26T18:21:37.277Z,0.30
2023-02-26T18:24:06.519Z,0.30
2023-02-26T18:26:36.360Z,0.30
2023-02-26T18:29:04.752Z,0.20
2023-02-26T18:31:34.886Z,0.20
2023-02-26T18:34:04.968Z,0.20
2023-02-26T18:36:37.865Z,0.10
2023-02-26T18:39:12.932Z,0.10
2023-02-26T18:41:42.693Z,0.10
2023-02-26T18:44:11.143Z,0.00
2023-02-26T18:46:41.662Z,0.00
2023-02-26T18:49:19.260Z,0.00
2023-02-26T18:51:47.569Z,-0.10
2023-02-26T18:54:15.787Z,-0.10
2023-02-26T18:56:47.024Z,-0.10
2023-02-26T18:59:15.158Z,-0.10
2023-02-26T19:01:43.672Z,-0.20
2023-02-26T19:04:12.149Z,-0.20
2023-02-26T19:06:40.650Z,-0.20
2023-02-26T19:09:09.533Z,-0.20
2023-02-26T19:11:38.070Z,-0.20
2023-02-26T19:14:07.733Z,-0.30
2023-02-26T19:16:38.909Z,-0.30
2023-02-26T19:19:11.196Z,-0.30
2023-02-26T19:21:41.124Z,-0.30
2023-02-26T19:24:12.924Z,-0.30
2023-02-26T19:26:42.169Z,-0.30
2023-02-26T19:29:15.920Z,-0.30
2023-02-26T19:31:45.378Z,-0.30
2023-02-26T19:34:14.482Z,-0.40
2023-02-26T19:36:48.052Z,-0.40
2023-02-26T19:39:19.380Z,-0.40
2023-02-26T19:41:49.069Z,-0.40
2023-02-26T19:44:20.226Z,-0.40
2023-02-26T19:46:49.132Z,-0.40
2023-02-26T19:49:18.332Z,-0.40
2023-02-26T19:51:47.012Z,-0.40
2023-02-26T19:54:15.236Z,-0.40
2023-02-26T19:56:44.291Z,-0.40
2023-02-26T19:59:13.047Z,-0.40
2023-02-26T20:01:43.892Z,-0.40
2023-02-26T20:04:12.298Z,-0.50
2023-02-26T20:06:40.517Z,-0.50
2023-02-26T20:09:09.876Z,-0.50
2023-02-26T20:11:39.054Z,-0.60
2023-02-26T20:14:07.890Z,-0.60
2023-02-26T20:16:36.173Z,-0.60
2023-02-26T20:19:06.390Z,-0.70
2023-02-26T20:21:34.700Z,-0.70
2023-02-26T20:24:02.951Z,-0.70
2023-02-26T20:26:32.599Z,-0.70
2023-02-26T20:29:00.882Z,-0.80
2023-02-26T20:31:30.548Z,-0.80
2023-02-26T20:33:59.276Z,-0.80
2023-02-26T20:36:28.974Z,-0.80
2023-02-26T20:38:57.290Z,-0.80
2023-02-26T20:41:28.131Z,-0.80
2023-02-26T20:43:58.652Z,-0.90
2023-02-26T20:46:27.214Z,-0.90
2023-02-26T20:48:55.453Z,-0.90
2023-02-26T20:51:28.507Z,-0.90
2023-02-26T20:53:57.100Z,-0.90
2023-02-26T20:56:25.396Z,-1.00
2023-02-26T20:58:53.691Z,-1.00
2023-02-26T21:01:22.030Z,-1.00
2023-02-26T21:03:50.327Z,-0.90
2023-02-26T21:06:18.483Z,-1.00
2023-02-26T21:08:48.121Z,-1.00
2023-02-26T21:11:16.336Z,-1.00
2023-02-26T21:13:46.423Z,-1.00
2023-02-26T21:16:14.700Z,-1.00
2023-02-26T21:18:42.916Z,-1.00
2023-02-26T21:21:11.142Z,-1.00
2023-02-26T21:23:39.398Z,-1.10
2023-02-26T21:26:08.949Z,-1.00
2023-02-26T21:28:37.199Z,-1.10
2023-02-26T21:31:05.901Z,-1.10
2023-02-26T21:33:34.090Z,-1.10
2023-02-26T21:36:02.218Z,-1.10
2023-02-26T21:38:30.433Z,-1.10
2023-02-26T21:40:58.909Z,-1.20
2023-02-26T21:43:28.506Z,-1.20
2023-02-26T21:45:56.733Z,-1.10
2023-02-26T21:48:25.153Z,-1.20
2023-02-26T21:50:56.165Z,-1.20
2023-02-26T21:53:24.624Z,-1.20
2023-02-26T21:55:52.945Z,-1.20
2023-02-26T21:58:21.250Z,-1.20
2023-02-26T22:00:50.993Z,-1.30
2023-02-26T22:03:19.445Z,-1.30
2023-02-26T22:05:50.755Z,-1.30
2023-02-26T22:08:18.970Z,-1.30
2023-02-26T22:10:47.218Z,-1.40
2023-02-26T22:13:15.981Z,-1.30
2023-02-26T22:15:44.258Z,-1.30
2023-02-26T22:18:13.909Z,-1.30
2023-02-26T22:20:42.201Z,-1.40
2023-02-26T22:23:10.354Z,-1.30
2023-02-26T22:25:38.690Z,-1.30
2023-02-26T22:28:07.336Z,-1.30
2023-02-26T22:30:35.550Z,-1.30
2023-02-26T22:33:03.782Z,-1.30
2023-02-26T22:35:33.465Z,-1.30
2023-02-26T22:38:01.611Z,-1.30
2023-02-26T22:40:29.832Z,-1.40
2023-02-26T22:42:58.083Z,-1.40
2023-02-26T22:45:26.256Z,-1.40
2023-02-26T22:47:54.526Z,-1.40
2023-02-26T22:50:22.673Z,-1.50
2023-02-26T22:52:52.484Z,-1.50
2023-02-26T22:55:20.878Z,-1.50
2023-02-26T22:57:49.024Z,-1.50
2023-02-26T23:00:20.355Z,-1.60
2023-02-26T23:02:50.816Z,-1.60
2023-02-26T23:05:20.561Z,-1.60
2023-02-26T23:07:49.183Z,-1.60
2023-02-26T23:10:22.052Z,-1.60
2023-02-26T23:12:50.232Z,-1.60
2023-02-26T23:15:18.467Z,-1.60
2023-02-26T23:17:46.736Z,-1.60
2023-02-26T23:20:16.869Z,-1.60
2023-02-26T23:22:45.292Z,-1.60
2023-02-26T23:25:13.658Z,-1.60
2023-02-26T23:27:43.351Z,-1.60
2023-02-26T23:30:13.455Z,-1.60
2023-02-26T23:32:41.700Z,-1.60
2023-02-26T23:35:11.151Z,-1.60
2023-02-26T23:37:39.399Z,-1.60
2023-02-26T23:40:09.502Z,-1.60
2023-02-26T23:42:37.626Z,-1.60
2023-02-26T23:45:08.905Z,-1.60
2023-02-26T23:47:37.082Z,-1.60
2023-02-26T23:50:06.339Z,-1.60
2023-02-26T23:52:34.563Z,-1.60
2023-02-26T23:55:02.689Z,-1.60
2023-02-26T23:57:31.255Z,-1.60
2023-02-26T23:59:59.529Z,-1.60
